Time;durP1;ratioP1;P1;durP2;ratioP2;P2;SDS_P1;SDS_P2;PMS_P1;PMS_P2;Temp;Humidity;BMP_temperature;BMP_pressure;BME280_temperature;BME280_humidity;BME280_pressure;Samples;Min_cycle;Max_cycle;Signal;HPM_P1;HPM_P2
2022/11/18 00:01:11;;;;;;;7.72;6.25;;;;;;;;;;4954137;28;20039;-76
2022/11/18 00:03:39;;;;;;;7.68;5.38;;;;;;;;;;4973535;28;20404;-75
2022/11/18 00:06:06;;;;;;;8.30;5.10;;;;;;;;;;4988365;28;20041;-75
2022/11/18 00:08:32;;;;;;;6.53;4.85;;;;;;;;;;4970854;28;20392;-76
2022/11/18 00:11:03;;;;;;;7.28;5.55;;;;;;;;;;4970357;28;20035;-76
2022/11/18 00:16:15;;;;;;;8.05;5.70;;;;;;;;;;4987907;28;20034;-77
2022/11/18 00:18:43;;;;;;;11.02;6.50;;;;;;;;;;4991179;28;20045;-77
2022/11/18 00:21:12;;;;;;;5.82;4.65;;;;;;;;;;4989289;28;20049;-76
2022/11/18 00:23:38;;;;;;;7.07;4.90;;;;;;;;;;4988729;28;20039;-76
2022/11/18 00:26:08;;;;;;;8.68;5.63;;;;;;;;;;4984423;28;20480;-76
2022/11/18 00:28:37;;;;;;;11.07;5.75;;;;;;;;;;4990126;28;20515;-76
2022/11/18 00:31:04;;;;;;;7.65;6.20;;;;;;;;;;4988629;28;20026;-75
2022/11/18 00:33:30;;;;;;;7.40;6.15;;;;;;;;;;4992859;28;20023;-74
2022/11/18 00:35:56;;;;;;;6.22;5.45;;;;;;;;;;4985012;28;20027;-75
2022/11/18 00:38:25;;;;;;;7.53;5.88;;;;;;;;;;4990212;28;20033;-75
2022/11/18 00:41:01;;;;;;;6.03;5.22;;;;;;;;;;4957679;28;20037;-75
2022/11/18 00:43:27;;;;;;;6.95;5.47;;;;;;;;;;4991349;28;20053;-75
2022/11/18 00:45:52;;;;;;;5.75;5.10;;;;;;;;;;4990078;28;20524;-76
2022/11/18 00:48:20;;;;;;;6.40;5.00;;;;;;;;;;4967680;28;20121;-75
2022/11/18 00:50:47;;;;;;;5.50;4.95;;;;;;;;;;4958453;28;20038;-75
2022/11/18 00:53:13;;;;;;;8.07;6.15;;;;;;;;;;4992205;28;20034;-74
2022/11/18 00:55:40;;;;;;;5.97;4.80;;;;;;;;;;4990701;28;20062;-74
2022/11/18 00:58:06;;;;;;;7.95;5.32;;;;;;;;;;4999525;22;20048;-80
2022/11/18 01:00:31;;;;;;;9.07;7.38;;;;;;;;;;4988159;28;20419;-80
2022/11/18 01:03:01;;;;;;;15.18;7.93;;;;;;;;;;5014360;28;20484;-81
2022/11/18 01:05:29;;;;;;;8.40;6.50;;;;;;;;;;4988897;28;20584;-80
2022/11/18 01:07:58;;;;;;;6.80;4.00;;;;;;;;;;4970603;28;20045;-81
2022/11/18 01:10:26;;;;;;;11.43;5.22;;;;;;;;;;4987531;28;20057;-81
2022/11/18 01:15:42;;;;;;;6.15;4.88;;;;;;;;;;4968740;28;20035;-81
2022/11/18 01:18:09;;;;;;;7.07;5.07;;;;;;;;;;4991797;28;20038;-81
2022/11/18 01:20:37;;;;;;;6.63;5.03;;;;;;;;;;4991661;28;20035;-81
2022/11/18 01:23:03;;;;;;;8.45;5.45;;;;;;;;;;4976780;28;20480;-81
2022/11/18 01:25:29;;;;;;;6.68;3.92;;;;;;;;;;4990408;28;20045;-81
2022/11/18 01:27:55;;;;;;;8.27;5.03;;;;;;;;;;4992019;28;20089;-81
2022/11/18 01:30:24;;;;;;;4.90;3.80;;;;;;;;;;4989101;28;20149;-81
2022/11/18 01:32:54;;;;;;;6.30;5.03;;;;;;;;;;4967160;28;20045;-81
2022/11/18 01:35:20;;;;;;;6.03;4.22;;;;;;;;;;4973024;28;20057;-81
2022/11/18 01:37:46;;;;;;;5.03;4.10;;;;;;;;;;4973877;28;20063;-81
2022/11/18 01:40:12;;;;;;;7.55;4.53;;;;;;;;;;4991386;28;20551;-81
2022/11/18 01:42:40;;;;;;;5.80;3.78;;;;;;;;;;4991992;28;20057;-80
2022/11/18 01:45:13;;;;;;;5.72;2.78;;;;;;;;;;4977378;28;20030;-82
2022/11/18 01:47:46;;;;;;;10.97;3.87;;;;;;;;;;4989506;28;20037;-83
2022/11/18 01:50:13;;;;;;;4.43;4.00;;;;;;;;;;4984049;28;20034;-83
2022/11/18 01:52:41;;;;;;;6.38;4.80;;;;;;;;;;4987912;28;20408;-82
2022/11/18 01:55:12;;;;;;;7.20;4.43;;;;;;;;;;4976490;28;20022;-82
2022/11/18 01:57:40;;;;;;;6.78;4.55;;;;;;;;;;4982024;28;20053;-81
2022/11/18 02:00:06;;;;;;;6.28;5.03;;;;;;;;;;4989510;28;20049;-80
2022/11/18 02:02:36;;;;;;;6.30;5.43;;;;;;;;;;4960124;28;20057;-80
2022/11/18 02:05:05;;;;;;;14.23;7.68;;;;;;;;;;4991555;28;20481;-80
2022/11/18 02:07:35;;;;;;;10.27;6.97;;;;;;;;;;4986281;28;20038;-79
2022/11/18 02:10:02;;;;;;;10.50;7.65;;;;;;;;;;4971731;28;20033;-79
2022/11/18 02:12:29;;;;;;;15.43;9.80;;;;;;;;;;4991270;28;20034;-79
2022/11/18 02:14:57;;;;;;;19.92;7.43;;;;;;;;;;4992291;28;20026;-79
2022/11/18 02:17:26;;;;;;;9.77;8.25;;;;;;;;;;4988690;28;20047;-79
2022/11/18 02:19:57;;;;;;;12.75;8.77;;;;;;;;;;4992708;28;20148;-78
2022/11/18 02:22:32;;;;;;;11.35;9.60;;;;;;;;;;4997172;28;20049;-80
2022/11/18 02:25:03;;;;;;;9.27;7.90;;;;;;;;;;5013651;28;20040;-80
2022/11/18 02:27:34;;;;;;;;;;;;;;;;;;5011946;28;20026;-78
2022/11/18 02:30:07;;;;;;;12.85;9.48;;;;;;;;;;5011488;28;19916;-79
2022/11/18 02:32:47;;;;;;;10.90;9.25;;;;;;;;;;4998216;28;20026;-79
2022/11/18 02:35:19;;;;;;;9.20;6.88;;;;;;;;;;4957518;28;20027;-79
2022/11/18 02:37:48;;;;;;;10.10;7.20;;;;;;;;;;4958218;28;20049;-81
2022/11/18 02:40:23;;;;;;;15.20;7.95;;;;;;;;;;4991299;28;20022;-81
2022/11/18 02:42:54;;;;;;;13.93;7.30;;;;;;;;;;4987085;28;20092;-79
2022/11/18 02:45:23;;;;;;;13.40;8.25;;;;;;;;;;4957069;28;20041;-78
2022/11/18 02:47:54;;;;;;;13.45;9.20;;;;;;;;;;4971115;28;20034;-79
2022/11/18 02:50:22;;;;;;;26.65;9.77;;;;;;;;;;4974173;28;20477;-79
2022/11/18 02:52:55;;;;;;;11.15;8.50;;;;;;;;;;4985403;28;20029;-79
2022/11/18 02:55:27;;;;;;;10.70;7.50;;;;;;;;;;4986240;28;20027;-79
2022/11/18 02:57:56;;;;;;;11.65;8.02;;;;;;;;;;4969435;28;20069;-79
2022/11/18 03:00:27;;;;;;;16.17;9.18;;;;;;;;;;4974041;28;20041;-79
2022/11/18 03:02:53;;;;;;;11.75;8.70;;;;;;;;;;4986064;28;20041;-79
2022/11/18 03:05:27;;;;;;;9.73;7.40;;;;;;;;;;4990802;28;20037;-79
2022/11/18 03:08:02;;;;;;;14.85;9.35;;;;;;;;;;4973153;28;20065;-79
2022/11/18 03:10:36;;;;;;;9.13;6.60;;;;;;;;;;4974447;28;20029;-79
2022/11/18 03:13:18;;;;;;;9.02;6.95;;;;;;;;;;4987492;28;20034;-79
2022/11/18 03:15:54;;;;;;;11.02;7.45;;;;;;;;;;4990510;28;20388;-79
2022/11/18 03:18:26;;;;;;;11.20;7.45;;;;;;;;;;4971617;28;20050;-80
2022/11/18 03:20:59;;;;;;;13.88;7.40;;;;;;;;;;4990993;28;20030;-78
2022/11/18 03:23:28;;;;;;;10.13;6.90;;;;;;;;;;4987853;28;20038;-77
2022/11/18 03:26:04;;;;;;;9.95;8.57;;;;;;;;;;4993928;28;20028;-78
2022/11/18 03:28:40;;;;;;;13.25;7.93;;;;;;;;;;4973680;28;20035;-81
2022/11/18 03:31:20;;;;;;;10.48;9.00;;;;;;;;;;4989407;28;20035;-81
2022/11/18 03:33:49;;;;;;;8.77;7.43;;;;;;;;;;4985317;28;20078;-81
2022/11/18 03:36:21;;;;;;;10.88;8.88;;;;;;;;;;4988398;28;20066;-81
2022/11/18 03:38:49;;;;;;;12.10;7.70;;;;;;;;;;4970351;28;20030;-80
2022/11/18 03:41:16;;;;;;;10.10;7.97;;;;;;;;;;4992375;28;20022;-80
2022/11/18 03:43:45;;;;;;;14.13;8.23;;;;;;;;;;4986900;28;20022;-80
2022/11/18 03:46:14;;;;;;;8.75;6.90;;;;;;;;;;4990078;28;20045;-82
2022/11/18 03:48:45;;;;;;;6.07;3.83;;;;;;;;;;4989034;28;20030;-82
2022/11/18 03:51:18;;;;;;;7.13;2.78;;;;;;;;;;4969109;28;20029;-81
2022/11/18 03:53:55;;;;;;;4.03;1.73;;;;;;;;;;4985254;28;20030;-81
2022/11/18 03:56:23;;;;;;;4.15;1.95;;;;;;;;;;4989110;28;20037;-81
2022/11/18 03:58:49;;;;;;;3.92;2.15;;;;;;;;;;4988349;28;20400;-81
2022/11/18 04:01:24;;;;;;;1.63;1.33;;;;;;;;;;4986572;28;20030;-81
2022/11/18 04:03:50;;;;;;;1.40;0.87;;;;;;;;;;4972246;28;20038;-81
2022/11/18 04:06:32;;;;;;;3.38;1.55;;;;;;;;;;4984968;28;20052;-80
2022/11/18 04:09:07;;;;;;;2.28;1.10;;;;;;;;;;4992806;28;20380;-81
2022/11/18 04:14:22;;;;;;;6.15;2.40;;;;;;;;;;4993207;28;20030;-82
2022/11/18 04:16:49;;;;;;;2.78;1.42;;;;;;;;;;4968014;28;20034;-82
2022/11/18 04:19:18;;;;;;;1.30;1.10;;;;;;;;;;4966234;28;20061;-82
2022/11/18 04:21:47;;;;;;;1.83;0.98;;;;;;;;;;4992286;28;20037;-82
2022/11/18 04:24:13;;;;;;;2.33;1.17;;;;;;;;;;4991316;28;20026;-81
2022/11/18 04:26:39;;;;;;;1.48;1.35;;;;;;;;;;4988510;28;20034;-81
2022/11/18 04:29:05;;;;;;;3.08;1.05;;;;;;;;;;4978706;28;20504;-83
2022/11/18 04:31:32;;;;;;;1.35;1.25;;;;;;;;;;4992231;28;20113;-80
2022/11/18 04:34:00;;;;;;;1.27;1.17;;;;;;;;;;4976291;28;20030;-79
2022/11/18 04:36:25;;;;;;;2.90;1.17;;;;;;;;;;4989699;28;20034;-79
2022/11/18 04:38:54;;;;;;;2.65;0.80;;;;;;;;;;4974613;28;20030;-81
2022/11/18 04:41:54;;;;;;;1.33;0.70;;;;;;;;;;4963281;28;20042;-81
2022/11/18 04:44:11;;;;;;;2.45;1.30;;;;;;;;;;4988780;28;20034;-82
2022/11/18 04:46:41;;;;;;;1.13;1.00;;;;;;;;;;4975899;28;20039;-82
2022/11/18 04:49:08;;;;;;;1.05;0.80;;;;;;;;;;4974538;28;20034;-82
2022/11/18 04:51:33;;;;;;;0.95;0.80;;;;;;;;;;4970639;28;20034;-82
2022/11/18 04:53:59;;;;;;;2.45;1.38;;;;;;;;;;4990071;28;20046;-79
2022/11/18 04:56:28;;;;;;;3.33;1.83;;;;;;;;;;4988488;28;20042;-82
2022/11/18 04:59:02;;;;;;;2.95;1.85;;;;;;;;;;4973542;28;20046;-82
2022/11/18 05:01:29;;;;;;;1.05;0.88;;;;;;;;;;4991120;28;20485;-83
2022/11/18 05:03:57;;;;;;;1.52;1.42;;;;;;;;;;4993677;28;20488;-81
2022/11/18 05:06:25;;;;;;;4.28;1.73;;;;;;;;;;4984442;28;20046;-80
2022/11/18 05:08:54;;;;;;;2.00;1.42;;;;;;;;;;4991046;28;20037;-81
2022/11/18 05:14:06;;;;;;;2.13;1.38;;;;;;;;;;4992318;28;20019;-81
2022/11/18 05:16:32;;;;;;;1.35;1.25;;;;;;;;;;4973603;28;20053;-82
2022/11/18 05:19:00;;;;;;;3.67;1.23;;;;;;;;;;4990066;28;20547;-82
2022/11/18 05:21:31;;;;;;;1.75;1.35;;;;;;;;;;4973912;28;20089;-81
2022/11/18 05:24:00;;;;;;;1.60;1.30;;;;;;;;;;4990003;28;20030;-81
2022/11/18 05:26:26;;;;;;;3.10;1.15;;;;;;;;;;4972265;28;20030;-82
2022/11/18 05:28:54;;;;;;;1.73;1.30;;;;;;;;;;4965223;28;20038;-80
2022/11/18 05:31:20;;;;;;;1.70;1.00;;;;;;;;;;4989205;28;20031;-81
2022/11/18 05:33:46;;;;;;;1.40;0.70;;;;;;;;;;4969867;28;20404;-81
2022/11/18 05:36:16;;;;;;;3.78;1.45;;;;;;;;;;4972882;28;20026;-81
2022/11/18 05:38:45;;;;;;;2.47;0.75;;;;;;;;;;4991291;28;20034;-81
2022/11/18 05:43:09;;;;;;;1.23;0.80;;;;;;;;;;4974230;28;20038;-81
2022/11/18 05:43:57;;;;;;;1.50;1.23;;;;;;;;;;4989461;28;20451;-81
2022/11/18 05:46:23;;;;;;;2.35;1.25;;;;;;;;;;4966721;28;20038;-81
2022/11/18 05:48:52;;;;;;;1.58;0.77;;;;;;;;;;4958432;28;20042;-81
2022/11/18 05:51:18;;;;;;;1.65;1.15;;;;;;;;;;4982663;28;20389;-81
2022/11/18 05:53:44;;;;;;;1.08;0.85;;;;;;;;;;4977354;28;20031;-81
2022/11/18 05:56:21;;;;;;;2.05;1.02;;;;;;;;;;4978133;28;20175;-81
2022/11/18 05:58:49;;;;;;;2.38;0.90;;;;;;;;;;4956899;28;20424;-82
2022/11/18 06:01:18;;;;;;;1.10;0.70;;;;;;;;;;4963158;28;20153;-82
2022/11/18 06:03:46;;;;;;;1.63;0.98;;;;;;;;;;4959365;28;20416;-82
2022/11/18 06:06:19;;;;;;;2.65;0.85;;;;;;;;;;4979449;28;20147;-82
2022/11/18 06:08:50;;;;;;;2.47;1.00;;;;;;;;;;4971882;28;20037;-82
2022/11/18 06:11:19;;;;;;;1.48;1.05;;;;;;;;;;4960025;28;20030;-82
2022/11/18 06:13:49;;;;;;;1.02;0.63;;;;;;;;;;4962657;28;20039;-81
2022/11/18 06:16:23;;;;;;;1.10;0.63;;;;;;;;;;4940854;28;20034;-82
2022/11/18 06:18:49;;;;;;;2.30;1.85;;;;;;;;;;4976140;28;20038;-82
2022/11/18 06:21:17;;;;;;;0.98;0.93;;;;;;;;;;4954446;28;20034;-80
2022/11/18 06:23:46;;;;;;;1.92;0.70;;;;;;;;;;4954219;28;20154;-82
2022/11/18 06:26:15;;;;;;;0.63;0.50;;;;;;;;;;4971596;28;20038;-82
2022/11/18 06:28:45;;;;;;;1.00;0.60;;;;;;;;;;4942513;28;20486;-82
2022/11/18 06:31:15;;;;;;;1.52;0.68;;;;;;;;;;4975170;28;20026;-82
2022/11/18 06:33:45;;;;;;;1.02;0.68;;;;;;;;;;4978435;28;20385;-81
2022/11/18 06:36:16;;;;;;;1.23;1.13;;;;;;;;;;4977459;28;20023;-81
2022/11/18 06:38:42;;;;;;;0.63;0.60;;;;;;;;;;4986428;28;20030;-82
2022/11/18 06:41:08;;;;;;;0.60;0.60;;;;;;;;;;4955939;28;20061;-82
2022/11/18 06:43:43;;;;;;;1.75;1.17;;;;;;;;;;4972153;28;20106;-82
2022/11/18 06:48:55;;;;;;;0.57;0.50;;;;;;;;;;4977379;28;20034;-82
2022/11/18 06:51:21;;;;;;;0.55;0.55;;;;;;;;;;4985557;28;20033;-81
2022/11/18 06:53:49;;;;;;;1.08;0.98;;;;;;;;;;4981626;28;20026;-82
2022/11/18 06:56:18;;;;;;;0.45;0.43;;;;;;;;;;4984407;28;20027;-82
2022/11/18 06:58:47;;;;;;;0.63;0.50;;;;;;;;;;5028762;23;20056;-72
2022/11/18 07:01:15;;;;;;;0.93;0.65;;;;;;;;;;5001196;28;20030;-72
2022/11/18 07:03:44;;;;;;;0.65;0.57;;;;;;;;;;5009093;28;20033;-72
2022/11/18 07:06:10;;;;;;;1.30;0.50;;;;;;;;;;5006029;28;20025;-70
2022/11/18 07:08:37;;;;;;;1.83;0.88;;;;;;;;;;5035471;28;20033;-72
2022/11/18 07:11:06;;;;;;;1.00;0.93;;;;;;;;;;5025363;28;20026;-72
2022/11/18 07:13:32;;;;;;;1.15;0.95;;;;;;;;;;4998991;28;20403;-72
2022/11/18 07:16:04;;;;;;;0.82;0.70;;;;;;;;;;5021629;28;20033;-69
2022/11/18 07:18:31;;;;;;;1.98;1.10;;;;;;;;;;5041564;28;20052;-71
2022/11/18 07:21:00;;;;;;;2.15;1.40;;;;;;;;;;5042424;28;20021;-71
2022/11/18 07:23:26;;;;;;;1.58;1.05;;;;;;;;;;5037869;28;20037;-71
2022/11/18 07:25:53;;;;;;;1.35;1.08;;;;;;;;;;5026463;28;20021;-71
2022/11/18 07:28:21;;;;;;;3.28;1.70;;;;;;;;;;5032395;28;20040;-71
2022/11/18 07:30:50;;;;;;;2.38;1.23;;;;;;;;;;5032401;28;20043;-71
2022/11/18 07:33:16;;;;;;;1.67;1.10;;;;;;;;;;5003443;28;20564;-71
2022/11/18 07:35:44;;;;;;;1.65;1.30;;;;;;;;;;5011018;28;20075;-70
2022/11/18 07:38:10;;;;;;;1.85;1.30;;;;;;;;;;5023434;28;20035;-71
2022/11/18 07:40:39;;;;;;;1.42;1.20;;;;;;;;;;5040671;28;20029;-70
2022/11/18 07:43:06;;;;;;;1.35;1.00;;;;;;;;;;4991079;28;20507;-71
2022/11/18 07:45:35;;;;;;;3.03;1.60;;;;;;;;;;5009097;28;20037;-71
2022/11/18 07:48:00;;;;;;;1.83;1.58;;;;;;;;;;5033342;28;20036;-70
2022/11/18 07:50:26;;;;;;;6.10;1.98;;;;;;;;;;5039133;28;20033;-71
2022/11/18 07:52:56;;;;;;;1.58;1.20;;;;;;;;;;5034357;28;20462;-70
2022/11/18 07:55:26;;;;;;;1.45;0.90;;;;;;;;;;5041144;28;20028;-70
2022/11/18 07:57:54;;;;;;;1.33;0.73;;;;;;;;;;5046804;28;20720;-71
2022/11/18 08:00:25;;;;;;;1.05;0.88;;;;;;;;;;5035983;28;20025;-70
2022/11/18 08:02:53;;;;;;;1.67;1.25;;;;;;;;;;5008369;28;20021;-71
2022/11/18 08:05:18;;;;;;;1.35;1.10;;;;;;;;;;5042333;28;20071;-73
2022/11/18 08:07:44;;;;;;;1.08;0.85;;;;;;;;;;5025707;28;20471;-72
2022/11/18 08:10:10;;;;;;;2.15;0.90;;;;;;;;;;5038634;28;20057;-71
2022/11/18 08:12:36;;;;;;;1.00;0.90;;;;;;;;;;5036287;28;20026;-71
2022/11/18 08:15:02;;;;;;;2.00;1.05;;;;;;;;;;5021629;28;20368;-71
2022/11/18 08:17:28;;;;;;;1.98;0.80;;;;;;;;;;5043189;28;20467;-71
2022/11/18 08:19:54;;;;;;;1.38;0.75;;;;;;;;;;5029588;28;22765;-72
2022/11/18 08:22:22;;;;;;;2.45;1.33;;;;;;;;;;5009694;28;20487;-73
2022/11/18 08:24:50;;;;;;;0.85;0.70;;;;;;;;;;5042871;28;20037;-73
2022/11/18 08:27:16;;;;;;;2.40;0.90;;;;;;;;;;5042507;28;20040;-72
2022/11/18 08:29:42;;;;;;;2.25;1.42;;;;;;;;;;5043505;28;20037;-71
2022/11/18 08:32:08;;;;;;;0.80;0.50;;;;;;;;;;5023219;28;20025;-73
2022/11/18 08:34:34;;;;;;;1.33;0.90;;;;;;;;;;5030159;28;20024;-72
2022/11/18 08:36:59;;;;;;;2.90;1.48;;;;;;;;;;5032515;28;20025;-72
2022/11/18 08:39:28;;;;;;;1.77;0.82;;;;;;;;;;5036609;28;20055;-72
2022/11/18 08:41:56;;;;;;;1.23;1.00;;;;;;;;;;5044274;28;20033;-71
2022/11/18 08:44:22;;;;;;;2.63;1.05;;;;;;;;;;5029126;28;20041;-71
2022/11/18 08:46:48;;;;;;;6.57;1.50;;;;;;;;;;4991496;28;20387;-71
2022/11/18 08:49:16;;;;;;;1.60;1.50;;;;;;;;;;5034869;28;20052;-71
2022/11/18 08:51:42;;;;;;;2.25;1.60;;;;;;;;;;5027010;28;20043;-71
2022/11/18 08:54:10;;;;;;;2.65;1.23;;;;;;;;;;5041839;28;20383;-71
2022/11/18 08:56:36;;;;;;;1.20;1.00;;;;;;;;;;5043711;28;20025;-71
2022/11/18 08:59:02;;;;;;;1.30;0.73;;;;;;;;;;5037113;28;20064;-71
2022/11/18 09:01:27;;;;;;;1.25;0.93;;;;;;;;;;5038485;28;20047;-70
2022/11/18 09:03:53;;;;;;;2.67;1.30;;;;;;;;;;5043449;28;21943;-71
2022/11/18 09:06:20;;;;;;;3.72;2.03;;;;;;;;;;5046472;28;20371;-71
2022/11/18 09:08:51;;;;;;;1.40;0.73;;;;;;;;;;5025688;28;20037;-72
2022/11/18 09:11:18;;;;;;;4.57;1.10;;;;;;;;;;5032155;28;20033;-71
2022/11/18 09:13:46;;;;;;;1.40;1.10;;;;;;;;;;5040648;28;20029;-71
2022/11/18 09:16:12;;;;;;;0.70;0.65;;;;;;;;;;5011760;28;20029;-71
2022/11/18 09:18:38;;;;;;;1.13;0.73;;;;;;;;;;5038628;28;20037;-71
2022/11/18 09:21:06;;;;;;;1.60;0.95;;;;;;;;;;5039500;28;20042;-72
2022/11/18 09:23:35;;;;;;;5.05;1.08;;;;;;;;;;5027460;28;20032;-71
2022/11/18 09:26:06;;;;;;;4.40;0.82;;;;;;;;;;5039304;28;20037;-72
2022/11/18 09:28:34;;;;;;;1.53;1.43;;;;;;;;;;5024600;28;20025;-72
2022/11/18 09:31:08;;;;;;;2.88;1.35;;;;;;;;;;5045200;28;20031;-72
2022/11/18 09:33:37;;;;;;;1.25;1.08;;;;;;;;;;5039921;28;20025;-72
2022/11/18 09:36:03;;;;;;;2.17;1.40;;;;;;;;;;5046603;28;20296;-72
2022/11/18 09:38:30;;;;;;;3.67;1.85;;;;;;;;;;5042203;28;20061;-72
2022/11/18 09:41:05;;;;;;;2.10;1.90;;;;;;;;;;5023834;28;20033;-72
2022/11/18 09:43:36;;;;;;;4.07;3.10;;;;;;;;;;5027005;28;20033;-72
2022/11/18 09:46:07;;;;;;;2.60;1.95;;;;;;;;;;5026917;28;20387;-72
2022/11/18 09:51:26;;;;;;;5.57;1.80;;;;;;;;;;5038292;28;20380;-72
2022/11/18 09:53:54;;;;;;;2.65;2.22;;;;;;;;;;5041009;28;20029;-72
2022/11/18 09:56:23;;;;;;;1.55;1.45;;;;;;;;;;5045174;28;20033;-72
2022/11/18 09:58:51;;;;;;;3.78;2.35;;;;;;;;;;5016681;28;20044;-72
2022/11/18 10:01:18;;;;;;;2.15;1.95;;;;;;;;;;5030643;28;20029;-72
2022/11/18 10:03:49;;;;;;;3.40;2.35;;;;;;;;;;5029227;28;20040;-72
2022/11/18 10:06:26;;;;;;;3.00;1.70;;;;;;;;;;5046018;28;20037;-72
2022/11/18 10:09:12;;;;;;;2.92;2.35;;;;;;;;;;4997454;28;20043;-72
2022/11/18 10:11:43;;;;;;;3.35;1.60;;;;;;;;;;5036588;28;20052;-72
2022/11/18 10:14:30;;;;;;;3.33;2.70;;;;;;;;;;5027142;28;20030;-72
2022/11/18 10:17:09;;;;;;;4.93;2.25;;;;;;;;;;5042759;28;20025;-72
2022/11/18 10:19:39;;;;;;;4.00;2.47;;;;;;;;;;5041931;28;20029;-72
2022/11/18 10:22:04;;;;;;;3.00;2.22;;;;;;;;;;5041135;28;20395;-72
2022/11/18 10:24:36;;;;;;;6.50;3.13;;;;;;;;;;5034811;28;20033;-72
2022/11/18 10:27:07;;;;;;;3.03;2.78;;;;;;;;;;5037237;28;20028;-72
2022/11/18 10:29:33;;;;;;;4.15;2.65;;;;;;;;;;5020586;28;20052;-72
2022/11/18 10:32:12;;;;;;;2.97;2.67;;;;;;;;;;5037647;28;20044;-72
2022/11/18 10:34:54;;;;;;;2.65;2.05;;;;;;;;;;5029185;28;20076;-72
2022/11/18 10:37:25;;;;;;;3.83;2.50;;;;;;;;;;5042846;28;20036;-72
2022/11/18 10:39:55;;;;;;;4.70;3.67;;;;;;;;;;5025906;28;20033;-72
2022/11/18 10:42:24;;;;;;;5.50;3.63;;;;;;;;;;5044909;28;20033;-72
2022/11/18 10:44:52;;;;;;;4.93;3.35;;;;;;;;;;5041632;28;20483;-72
2022/11/18 10:47:28;;;;;;;4.35;2.58;;;;;;;;;;5042038;28;20029;-72
2022/11/18 10:49:59;;;;;;;5.65;3.13;;;;;;;;;;5026606;28;20060;-72
2022/11/18 10:52:28;;;;;;;2.43;2.03;;;;;;;;;;5032287;28;20033;-72
2022/11/18 10:55:18;;;;;;;2.55;1.73;;;;;;;;;;5018333;28;20037;-72
2022/11/18 10:57:45;;;;;;;2.30;2.10;;;;;;;;;;5019340;28;20041;-72
2022/11/18 11:00:29;;;;;;;2.45;2.13;;;;;;;;;;5044323;28;20116;-72
2022/11/18 11:02:59;;;;;;;2.90;2.53;;;;;;;;;;5040858;28;20029;-72
2022/11/18 11:05:26;;;;;;;2.88;2.00;;;;;;;;;;5011006;28;20038;-72
2022/11/18 11:08:05;;;;;;;2.42;1.70;;;;;;;;;;5021558;28;20036;-72
2022/11/18 11:10:33;;;;;;;2.60;2.40;;;;;;;;;;5039985;28;20059;-71
2022/11/18 11:13:02;;;;;;;6.28;2.60;;;;;;;;;;5037732;28;20029;-72
2022/11/18 11:15:36;;;;;;;3.50;3.03;;;;;;;;;;5036476;28;20040;-72
2022/11/18 11:20:50;;;;;;;3.47;2.08;;;;;;;;;;5035969;28;20040;-72
2022/11/18 11:23:16;;;;;;;3.80;2.00;;;;;;;;;;5035812;28;20497;-72
2022/11/18 11:25:45;;;;;;;2.97;2.40;;;;;;;;;;5016392;28;20151;-72
2022/11/18 11:28:20;;;;;;;3.50;2.30;;;;;;;;;;5024463;28;20037;-72
2022/11/18 11:31:08;;;;;;;2.72;2.53;;;;;;;;;;5033576;28;20467;-72
2022/11/18 11:33:39;;;;;;;4.60;2.60;;;;;;;;;;5029579;28;20056;-72
2022/11/18 11:36:14;;;;;;;3.90;3.03;;;;;;;;;;5023074;28;20032;-72
2022/11/18 11:39:08;;;;;;;3.47;2.67;;;;;;;;;;5022165;28;20025;-72
2022/11/18 11:41:42;;;;;;;4.78;2.50;;;;;;;;;;4996953;28;20033;-72
2022/11/18 11:44:37;;;;;;;4.78;2.88;;;;;;;;;;5034250;28;20029;-72
2022/11/18 11:50:07;;;;;;;3.95;2.80;;;;;;;;;;5035839;28;20056;-72
2022/11/18 11:52:43;;;;;;;5.32;3.30;;;;;;;;;;5021769;28;20025;-72
2022/11/18 11:55:17;;;;;;;2.97;2.35;;;;;;;;;;5032205;28;20040;-72
2022/11/18 11:58:03;;;;;;;4.43;2.78;;;;;;;;;;5019141;28;20030;-72
2022/11/18 12:00:34;;;;;;;3.65;3.25;;;;;;;;;;5034585;28;20663;-72
2022/11/18 12:03:20;;;;;;;3.42;3.05;;;;;;;;;;5035560;28;20028;-72
2022/11/18 12:05:48;;;;;;;2.63;2.40;;;;;;;;;;5003755;28;20037;-73
2022/11/18 12:08:28;;;;;;;5.13;2.47;;;;;;;;;;5034411;28;20395;-72
2022/11/18 12:11:05;;;;;;;3.97;2.38;;;;;;;;;;5032295;28;20425;-72
2022/11/18 12:13:50;;;;;;;4.38;3.17;;;;;;;;;;5025504;28;20035;-72
2022/11/18 12:16:19;;;;;;;3.60;3.00;;;;;;;;;;5021725;28;20316;-72
2022/11/18 12:18:58;;;;;;;3.58;3.00;;;;;;;;;;5037232;28;20025;-72
2022/11/18 12:21:43;;;;;;;3.00;2.70;;;;;;;;;;5018819;28;20033;-71
2022/11/18 12:24:30;;;;;;;4.40;3.05;;;;;;;;;;5004922;28;20050;-71
2022/11/18 12:27:00;;;;;;;4.15;2.65;;;;;;;;;;5030920;28;20024;-71
2022/11/18 12:29:34;;;;;;;5.50;3.47;;;;;;;;;;5026136;28;20029;-71
2022/11/18 12:32:03;;;;;;;2.47;2.05;;;;;;;;;;5034877;28;20443;-71
2022/11/18 12:34:39;;;;;;;1.95;1.83;;;;;;;;;;5047050;28;20025;-70
2022/11/18 12:37:22;;;;;;;2.33;1.83;;;;;;;;;;5042206;28;20025;-71
2022/11/18 12:40:00;;;;;;;3.30;2.15;;;;;;;;;;5028981;28;20479;-71
2022/11/18 12:45:44;;;;;;;2.50;1.60;;;;;;;;;;5047162;28;20033;-71
2022/11/18 12:48:23;;;;;;;2.30;1.27;;;;;;;;;;5019648;28;20041;-71
2022/11/18 12:50:52;;;;;;;3.17;1.45;;;;;;;;;;5034101;28;20048;-71
2022/11/18 12:53:32;;;;;;;3.10;1.70;;;;;;;;;;5048906;28;20029;-72
2022/11/18 12:55:58;;;;;;;2.03;1.33;;;;;;;;;;5042128;28;20032;-71
2022/11/18 12:58:25;;;;;;;1.67;1.58;;;;;;;;;;5053149;22;20033;-81
2022/11/18 13:01:05;;;;;;;3.67;3.08;;;;;;;;;;5032627;28;20044;-81
2022/11/18 13:03:35;;;;;;;3.72;1.40;;;;;;;;;;5023230;28;20037;-81
2022/11/18 13:06:08;;;;;;;1.77;1.33;;;;;;;;;;5029295;28;20033;-81
2022/11/18 13:08:37;;;;;;;2.95;2.08;;;;;;;;;;5013223;28;20038;-81
2022/11/18 13:17:50;;;;;;;2.10;1.83;;;;;;;;;;5011509;28;20025;-80
2022/11/18 13:19:21;;;;;;;6.18;1.52;;;;;;;;;;5010735;28;20030;-80
2022/11/18 13:24:45;;;;;;;2.55;1.25;;;;;;;;;;5009027;28;20026;-81
2022/11/18 13:27:34;;;;;;;2.15;1.77;;;;;;;;;;5014112;28;20037;-79
2022/11/18 13:30:12;;;;;;;2.78;2.15;;;;;;;;;;5000869;28;20046;-81
2022/11/18 13:32:47;;;;;;;5.43;1.70;;;;;;;;;;5012891;28;20034;-81
2022/11/18 13:35:22;;;;;;;3.35;1.30;;;;;;;;;;4998489;28;20403;-80
2022/11/18 13:37:55;;;;;;;8.70;1.52;;;;;;;;;;5005018;28;20044;-81
2022/11/18 13:40:22;;;;;;;3.47;1.77;;;;;;;;;;5010762;28;20040;-80
2022/11/18 13:42:51;;;;;;;4.93;1.95;;;;;;;;;;4985239;28;20049;-80
2022/11/18 13:45:23;;;;;;;1.65;1.17;;;;;;;;;;5006873;28;20372;-80
2022/11/18 13:47:55;;;;;;;;;;;;;;;;;;5008114;28;20041;-80
2022/11/18 13:50:34;;;;;;;2.53;1.98;;;;;;;;;;5012964;28;19913;-80
2022/11/18 13:53:12;;;;;;;3.17;1.95;;;;;;;;;;5009574;28;20029;-80
2022/11/18 13:56:01;;;;;;;2.33;1.60;;;;;;;;;;5013650;28;20026;-80
2022/11/18 13:58:31;;;;;;;3.15;1.45;;;;;;;;;;5002857;28;20046;-80
2022/11/18 14:01:02;;;;;;;2.35;1.50;;;;;;;;;;5007258;28;20026;-80
2022/11/18 14:03:40;;;;;;;2.00;1.45;;;;;;;;;;5010195;28;20404;-81
2022/11/18 14:06:06;;;;;;;2.28;1.60;;;;;;;;;;5012662;28;20034;-80
2022/11/18 14:08:39;;;;;;;4.85;1.50;;;;;;;;;;4985047;28;20037;-80
2022/11/18 14:11:05;;;;;;;2.92;1.75;;;;;;;;;;4993220;28;20392;-80
2022/11/18 14:13:36;;;;;;;1.80;1.27;;;;;;;;;;5011604;28;20034;-80
2022/11/18 14:16:22;;;;;;;3.17;1.70;;;;;;;;;;5007731;28;20025;-81
2022/11/18 14:18:50;;;;;;;1.45;1.35;;;;;;;;;;5010106;28;20393;-80
2022/11/18 14:21:27;;;;;;;2.03;1.83;;;;;;;;;;5010171;28;20028;-80
2022/11/18 14:23:55;;;;;;;1.98;1.63;;;;;;;;;;4994795;28;20045;-80
2022/11/18 14:26:29;;;;;;;2.35;1.38;;;;;;;;;;5011675;28;20037;-80
2022/11/18 14:29:00;;;;;;;2.28;1.42;;;;;;;;;;5013364;28;20037;-80
2022/11/18 14:31:30;;;;;;;2.05;1.42;;;;;;;;;;5010423;28;20535;-80
2022/11/18 14:34:20;;;;;;;3.53;1.77;;;;;;;;;;5012501;28;20495;-80
2022/11/18 14:36:46;;;;;;;2.17;1.83;;;;;;;;;;5013702;28;20037;-80
2022/11/18 14:39:26;;;;;;;2.88;1.70;;;;;;;;;;5013062;28;20024;-80
2022/11/18 14:41:53;;;;;;;4.03;1.67;;;;;;;;;;5012159;28;20029;-80
2022/11/18 14:44:20;;;;;;;3.67;2.70;;;;;;;;;;5004194;28;20034;-80
2022/11/18 14:46:56;;;;;;;2.35;1.50;;;;;;;;;;5024818;28;20036;-80
2022/11/18 14:49:23;;;;;;;2.30;1.90;;;;;;;;;;5008285;28;20052;-81
2022/11/18 14:51:50;;;;;;;3.97;1.90;;;;;;;;;;5013094;28;20029;-80
2022/11/18 14:54:16;;;;;;;7.70;1.10;;;;;;;;;;5010271;28;20030;-80
2022/11/18 14:56:43;;;;;;;2.17;1.60;;;;;;;;;;5012040;28;20026;-80
2022/11/18 14:59:12;;;;;;;2.28;1.42;;;;;;;;;;5003310;28;20034;-80
2022/11/18 15:01:39;;;;;;;2.15;1.90;;;;;;;;;;5011721;28;20492;-80
2022/11/18 15:04:05;;;;;;;4.25;2.25;;;;;;;;;;5009952;28;20025;-80
2022/11/18 15:06:31;;;;;;;3.70;2.70;;;;;;;;;;5011548;28;20026;-80
2022/11/18 15:08:59;;;;;;;6.65;3.20;;;;;;;;;;5006051;28;20045;-80
2022/11/18 15:11:25;;;;;;;4.43;2.08;;;;;;;;;;5002656;28;20034;-80
2022/11/18 15:13:51;;;;;;;3.53;2.92;;;;;;;;;;5010097;28;20033;-80
2022/11/18 15:16:19;;;;;;;6.15;4.63;;;;;;;;;;5007435;28;20033;-80
2022/11/18 15:18:49;;;;;;;3.45;2.63;;;;;;;;;;5006061;28;20038;-80
2022/11/18 15:21:16;;;;;;;7.63;3.13;;;;;;;;;;5009195;28;20041;-80
2022/11/18 15:23:46;;;;;;;6.00;3.50;;;;;;;;;;5008104;28;20496;-80
2022/11/18 15:26:28;;;;;;;5.28;4.38;;;;;;;;;;5010326;28;20049;-80
2022/11/18 15:28:55;;;;;;;11.15;4.18;;;;;;;;;;4990747;28;20049;-80
2022/11/18 15:31:24;;;;;;;5.97;2.20;;;;;;;;;;5001383;28;20030;-80
2022/11/18 15:33:55;;;;;;;3.90;2.42;;;;;;;;;;5006457;28;20041;-80
2022/11/18 15:36:25;;;;;;;3.65;2.47;;;;;;;;;;5006200;28;20041;-80